Tobias Ryerson

Recruteur en chef - Molde
23 Oct 2027
Samedi
Processus

Personnalité

Adaptabilité (18) Ambition (10) Controverse (11) Loyauté (5) Pression (15) Professionnalisme (8) Sportivité (3) Tempérament (16)

Profil

Style d'entraînement Démocratique
Diplôme Continental C
Détermination 13
Gestion des joueurs 11
Motivation 4
Discipline 13
Satisfaction professionnelle
82%
Fatigue
0%
Rôle Recruteur en chef
Salaire 20.3K p/s
Contrat 14.03.2028

Performance

Comportement Bon
Efficacité de l'entraînement
27%
Développement des joueurs
45%
Prévention des blessures
30%
Mise en place tactique
30%

Événements récents

A participé à une réunion de recrutement maintenant
A participé à une réunion de recrutement maintenant
A recommandé une cible de transfert maintenant
A recommandé une cible de transfert maintenant
A participé à une réunion de recrutement maintenant
A évalué un joueur 7j
A évalué un joueur 7j
A évalué un joueur 7j

Suivi en cours

173
Joueur Club Statut Capacité Confiance Observé Dernière observation Dernier vote
Agustín Medina Lanús Actif 112 / 134 40% 2 22.10.2027 -
Olaniyi Saheed Kwara United Actif 101 / 101 40% 1 22.10.2027 -
Kaick FC Dallas Actif 110 / 103 40% 1 19.10.2027 -
Hosea Michael Remo Stars Actif 96 / 94 40% 1 19.10.2027 -
Joel Ezra Enyimba Actif 96 / 102 40% 3 17.10.2027 -
Tobias Moi Bodo/Glimt Actif 118 / 103 40% 1 17.10.2027 -
Nahuel Leivas Montevideo City Torque Actif 94 / 113 40% 2 16.10.2027 -
Azizbek To'lqinbekov Bunyodkor Actif 75 / 114 40% 3 16.10.2027 -
Giovanni Leoni Mansfield Town Actif 132 / 138 40% 1 15.10.2027 -
Felipe Faúndez O'Higgins Actif 123 / 105 40% 1 15.10.2027 -
Julian Bjørkavåg IK Start Actif 106 / 90 40% 2 14.10.2027 -
Felipe Obradovich Gimnasia La Plata Actif 119 / 120 40% 1 14.10.2027 -
Josh Acheampong Oxford United Actif 159 / 153 40% 2 13.10.2027 -
Facundo Balatti Penarol Actif 83 / 114 40% 1 13.10.2027 -
Inti Borghetto Patronato Actif 78 / 95 40% 1 12.10.2027 -
Tyson Pearce St. Louis CITY SC Actif 87 / 95 40% 1 10.10.2027 -
Godwin Oham Warri Wolves Actif 83 / 93 40% 1 09.10.2027 -
Sheriff Amuda Shooting Stars Actif 79 / 95 40% 1 05.10.2027 -
Luis Otávio Toronto FC Actif 97 / 111 40% 1 04.10.2027 -
Jofrank Istifanus Nasarawa United Actif 73 / 91 40% 1 04.10.2027 -
Uche Jaguar Kwara United Actif 87 / 97 40% 2 10.08.2027 -
Jobe Bellingham Borussia Dortmund Actif 126 / 159 40% 1 10.08.2027 -
Ole Enersen Stromsgodset Actif 95 / 97 48% 1 09.08.2027 -
Riquelme Thompson-Jones Shrewsbury Town Actif 113 / 110 40% 1 07.08.2027 -
Edwin Asamoah Berekum Chelsea Actif 89 / 93 40% 1 06.08.2027 -
Gift Isioma Warri Wolves Actif 90 / 89 40% 1 05.08.2027 -
Ibrahim Sabiu Bendel Insurance Actif 81 / 95 40% 2 03.08.2027 -
Daniel Kelly Derby County Actif 102 / 116 40% 2 03.08.2027 -
Joel McGregor Swindon Town Actif 90 / 107 40% 1 31.07.2027 -
Tiago Freitas Benfica Actif 100 / 128 40% 1 30.07.2027 -
Martim Cunha Porto Actif 103 / 122 40% 1 29.07.2027 -
Juan David Arizala Udinese Actif 123 / 137 40% 1 29.07.2027 -
Mohammed Wakaso Hasaacas Actif 91 / 108 40% 1 28.07.2027 -
Joe Johnson Luton Town Actif 87 / 114 40% 1 28.07.2027 -
Maeson King Blackpool Actif 123 / 129 40% 1 27.07.2027 -
Daniel Kyerewaa Reading Actif 105 / 125 40% 2 14.07.2027 -
Ross McCrorie Bristol City Actif 144 / 126 40% 1 14.07.2027 -
Todd Cantwell Blackburn Rovers Actif 152 / 138 40% 6 13.07.2027 -
Ryoya Morishita Blackburn Rovers Actif 124 / 131 40% 1 13.07.2027 -
Aidomo Emakhu Oxford United Actif 131 / 131 40% 1 12.07.2027 -
Pelle Mattsson Norwich City Actif 130 / 123 40% 1 12.07.2027 -
Mikey Johnston West Bromwich Albion Actif 128 / 120 40% 1 11.07.2027 -
Patrick Roberts Birmingham Actif 116 / 120 40% 2 10.07.2027 -
Alex Lowry Wycombe Wanderers Actif 103 / 125 40% 1 10.07.2027 -
Isaiah Jones Luton Town Actif 121 / 117 40% 1 09.07.2027 -
Louie Barry Sheffield Wednesday Actif 145 / 118 40% 1 09.07.2027 -
Isaac Price West Bromwich Albion Actif 113 / 144 40% 3 07.07.2027 -
Cian Ashford Cardiff City Actif 122 / 117 40% 4 07.07.2027 -
Dale Taylor Blackpool Actif 133 / 108 40% 1 05.07.2027 -
Kristian Thorstvedt Sassuolo Actif 129 / 132 40% 1 03.07.2027 -
Jovon Makama Norwich City Actif 120 / 127 40% 2 30.06.2027 -
Dylan Levitt Leyton Orient Actif 126 / 123 40% 1 30.06.2027 -
Giorgi Chakvetadze Watford Actif 135 / 135 40% 1 29.06.2027 -
Oladapo Afolayan Blackburn Rovers Actif 137 / 125 40% 1 29.06.2027 -
Tyrese Campbell Sheffield United Actif 141 / 131 40% 2 27.06.2027 -
Ramón Terrats Getafe Actif 152 / 149 40% 4 25.06.2027 -
Samuel Edozie Southampton Actif 144 / 139 40% 1 25.06.2027 -
Demarai Gray Birmingham Actif 141 / 138 40% 2 22.06.2027 -
Tomáš Rigo Stoke City Actif 147 / 144 40% 2 22.06.2027 -
Callum O'Hare Sheffield United Actif 130 / 129 40% 1 21.06.2027 -
Abu Kamara Portsmouth Actif 121 / 114 40% 1 20.06.2027 -
Rúben Rodrigues Bolton Wanderers Actif 132 / 122 40% 1 20.06.2027 -
Mark Sykes Millwall Actif 126 / 124 40% 2 19.06.2027 -
Othmane Maamma Watford Actif 115 / 127 40% 1 19.06.2027 -
Carlos Vicente Udinese Actif 149 / 151 40% 1 18.06.2027 -
Mathias Jørgensen Blackburn Rovers Actif 108 / 124 40% 2 17.06.2027 -
Zeidane Inoussa Swansea City Actif 122 / 124 40% 3 16.06.2027 -
Harry Clarke Preston Actif 120 / 138 40% 1 16.06.2027 -
Jacques Ekomié Wrexham Actif 127 / 122 40% 1 11.06.2027 -
Alex Robertson Cardiff City Actif 127 / 110 40% 1 10.06.2027 -
Jason Knight Bristol City Actif 131 / 127 40% 1 08.06.2027 -
Ali Ahmed Norwich City Actif 138 / 132 40% 1 07.06.2027 -
Fraser Murray Wigan Athletic Actif 100 / 119 40% 1 07.06.2027 -
Harvey Blair Portsmouth Actif 136 / 129 40% 1 02.06.2027 -
Max Johnston Derby County Actif 121 / 140 40% 2 01.06.2027 -
Welington Southampton Actif 125 / 136 40% 1 01.06.2027 -
Rumarn Burrell Queens Park Rangers Actif 114 / 118 40% 2 30.05.2027 -
Joe Aribo Southampton Actif 145 / 130 40% 1 30.05.2027 -
Finn Azaz Southampton Actif 134 / 129 40% 1 26.05.2027 -
Tyler Goodrham Oxford United Actif 102 / 126 40% 1 25.05.2027 -
Koki Saito Queens Park Rangers Actif 148 / 116 40% 3 24.05.2027 -
Joe Gelhardt Hull City Actif 117 / 123 40% 1 24.05.2027 -
Shea Charles Southampton Actif 123 / 143 40% 1 23.05.2027 -
Myles Peart-Harris Oxford United Actif 120 / 109 40% 1 13.05.2027 -
Jack McGlynn Stoke City Actif 137 / 123 40% 1 13.05.2027 -
Karlan Grant West Bromwich Albion Actif 132 / 127 40% 1 07.05.2027 -
Lamine Cissé Peterborough United Actif 142 / 129 40% 1 06.05.2027 -
Paris Maghoma Norwich City Actif 106 / 126 40% 1 03.05.2027 -
Edmund Nuhu BA All Stars Actif 79 / 81 40% 1 29.03.2027 -
Victor Ehibe Gazelle Garoua Actif 87 / 86 40% 1 29.03.2027 -
Aaron Collins Milton Keynes Dons Actif 103 / 128 40% 1 25.03.2027 -
Lebohang Maboe Kaizer Chiefs Actif 96 / 114 40% 1 23.03.2027 -
Gonzalo Plata Rosenborg Actif 133 / 134 66% 1 22.02.2027 Approuver
Lorent Tolaj Plymouth Argyle Actif 136 / 120 40% 1 15.02.2027 -
Aune Heggebø West Bromwich Albion Actif 127 / 128 40% 1 15.02.2027 -
Konstantin Tyukavin Arsenal Négociation 132 / 133 66% 1 01.02.2027 Approuver
Peter Shalulile Mamelodi Sundowns Perdu 129 / 129 66% 1 01.02.2027 Approuver
Ammar Ramadan DAC Dunajska Streda Actif 140 / 123 40% 6 31.01.2027 -
Zakaria Aboukhlal Torino Actif 121 / 135 40% 2 31.01.2027 -
Jacques Siwe Rubin Actif 95 / 128 40% 2 29.01.2027 -
Ali Youssef Apollon Actif 119 / 113 40% 3 29.01.2027 -
Radek Šiler Podbrezova Actif 107 / 116 40% 2 28.01.2027 -
Mduduzi Shabalala Kaizer Chiefs Actif 118 / 104 40% 3 28.01.2027 -
Hélio Varela Maccabi Tel Aviv Actif 120 / 133 40% 1 28.01.2027 -
Camilo Durán Bloemfontein Celtic Actif 121 / 123 40% 4 26.01.2027 -
Martin Petkov Botev Vratsa Actif 111 / 108 40% 1 25.01.2027 -
Dardan Shabanhaxhaj Rubin Actif 108 / 120 40% 2 21.01.2027 -
Camillo Tavernelli Arezzo Actif 125 / 101 40% 1 21.01.2027 -
Santiago Pierotti Lecce Actif 131 / 126 40% 2 17.01.2027 -
Mattia Felici Cagliari Actif 138 / 123 40% 1 17.01.2027 -
Stephen Amankona Aduana Stars Actif 93 / 93 40% 2 15.01.2027 -
Tamerlan Musaev CSKA Moscow Actif 124 / 118 40% 3 13.01.2027 -
Magnus Lankhof Dahlby Stabaek Actif 112 / 110 40% 4 13.01.2027 -
Wandile Duba Maritzburg United Actif 104 / 96 40% 2 13.01.2027 -
Kenan Dervišagić Floriana Actif 89 / 101 40% 5 11.01.2027 -
Yegor Golenkov Rostov Actif 102 / 107 40% 2 06.01.2027 -
Thulani Mphela Free State Stars Actif 102 / 116 40% 1 03.01.2027 -
Ole-Didrik Blomberg Bodo/Glimt Actif 123 / 120 40% 2 02.01.2027 -
Dennis Gjengaar Valerenga Actif 103 / 121 40% 2 01.01.2027 -
Relebohile Mofokeng Orlando Pirates Actif 102 / 137 40% 1 24.12.2026 -
Etiosa Ighodaro Kaizer Chiefs Actif 111 / 120 40% 3 15.12.2026 -
Bahlul Mammadov Inter Actif 116 / 108 40% 1 15.12.2026 -
Ola Brynhildsen Bodo/Glimt Actif 124 / 130 40% 9 13.12.2026 -
Aljoša Matko Ujpest Actif 99 / 115 40% 2 12.12.2026 -
Evangelos Patoulidis Sandefjord Actif 114 / 117 40% 1 12.12.2026 -
Isaac Matondo Koper Actif 93 / 100 40% 2 08.12.2026 -
Armstrong Oko-Flex Levski Actif 101 / 128 40% 3 07.12.2026 -
Elias Hoff Melkersen Stromsgodset Actif 103 / 117 40% 2 06.12.2026 Plus d'infos
Daniel Bassi Lillestrom Actif 120 / 119 40% 1 06.12.2026 -
Petter Nosa Dahl Borussia Mönchengladbach Actif 109 / 137 40% 2 01.12.2026 -
Danil Glebov Dinamo Moscow Actif 135 / 130 40% 1 01.12.2026 -
Markus Karlsbakk Haugesund Actif 116 / 114 40% 1 28.11.2026 -
Paul Ngongo Aalesund Actif 118 / 100 40% 2 26.11.2026 -
Mathias Sauer Sandefjord Actif 113 / 109 40% 4 24.11.2026 -
David Edvardsson Tromso Actif 117 / 111 40% 2 24.11.2026 -
Hinrik Harðarson Odd Actif 91 / 102 40% 2 24.11.2026 -
Jerome Karelse Golden Arrows Actif 105 / 99 40% 2 22.11.2026 -
Juan Manuel Boselli Krasnodar Actif 124 / 125 40% 1 17.11.2026 -
Yeangel Montero Naxxar Lions Actif 110 / 95 40% 2 10.11.2026 -
Tenton Yenne Baltika Actif 102 / 98 40% 1 09.11.2026 -
Odin Bjørtuft Bodo/Glimt Actif 124 / 126 40% 3 08.11.2026 -
August Mikkelsen Bodo/Glimt Actif 125 / 118 40% 1 08.11.2026 -
Zakaria Mugeese Odd Actif 110 / 109 40% 1 07.11.2026 -
Davíð Snær Jóhannsson Aalesund Actif 90 / 103 40% 1 07.11.2026 -
Erik Botheim Viking Actif 131 / 120 40% 2 02.11.2026 -
Andreas Nibe Sarpsborg 08 Actif 115 / 123 40% 2 02.11.2026 Plus d'infos
Petar Stanić Ludogorets Actif 140 / 140 40% 1 02.11.2026 -
Sory Diarra Haugesund Actif 118 / 97 40% 1 29.10.2026 Plus d'infos
Ádin Molnár MTK Budapest Actif 126 / 122 40% 1 27.10.2026 -
Brayan Gil Baltika Actif 122 / 123 40% 4 24.10.2026 -
Uba Charles Aalesund Actif 114 / 116 40% 1 21.10.2026 -
Sander Risan Mørk Sandefjord Actif 102 / 118 40% 1 16.10.2026 -
Leo Cornic Tromso Actif 109 / 105 40% 1 16.10.2026 -
Aimar Sher Sarpsborg 08 Actif 125 / 129 40% 2 14.10.2026 -
Terry Benjamin IK Start Actif 102 / 87 40% 2 11.10.2026 -
Nikolaj Möller Sandefjord Actif 97 / 109 40% 2 10.10.2026 -
Sam Nombe Milton Keynes Dons Actif 102 / 115 40% 1 10.10.2026 -
Liel Abada Charlotte Football Club Actif 123 / 131 40% 1 07.10.2026 -
Miguel Pereira Persebaya Actif 109 / 118 40% 1 07.10.2026 -
Joe Bell Viking Actif 119 / 123 40% 1 04.10.2026 -
Matej Trusa DAC Dunajska Streda Actif 125 / 102 40% 1 04.10.2026 -
Kevin Krygård Lillestrom Actif 126 / 114 40% 1 01.10.2026 -
Örvar Eggertsson Stjarnan Actif 118 / 101 40% 2 28.09.2026 -
Christian Krasnodar Actif 144 / 136 40% 1 27.09.2026 -
Mikael Ugland IK Start Actif 103 / 103 40% 1 27.09.2026 -
Sander Christiansen Sarpsborg 08 Actif 99 / 110 40% 1 26.09.2026 -
Mykola Kukharevych Slovan Bratislava Actif 127 / 107 40% 1 24.09.2026 -
Sebastian Holm Mathisen Sandefjord Actif 104 / 115 40% 1 21.09.2026 -
Jesper Cornelius IK Start Actif 88 / 111 40% 1 18.09.2026 -
Gianni Stensness Viking Actif 126 / 113 40% 1 18.09.2026 -
Sturla Ottesen Lillestrom Actif 119 / 103 40% 1 13.09.2026 -
Syver Aas Odd Actif 94 / 96 40% 1 13.09.2026 -
Karim Adeyemi Barcelona Actif 163 / 149 40% 1 02.08.2026 -